createdAt,value
2022-12-18T00:00:36.075Z,29.98
2022-12-18T00:03:02.799Z,23.65
2022-12-18T00:05:29.464Z,28.67
2022-12-18T00:07:56.110Z,32.13
2022-12-18T00:10:22.776Z,31.77
2022-12-18T00:12:49.554Z,30.35
2022-12-18T00:15:16.153Z,29.90
2022-12-18T00:17:42.942Z,37.58
2022-12-18T00:20:09.577Z,28.73
2022-12-18T00:22:36.453Z,40.78
2022-12-18T00:25:03.057Z,25.42
2022-12-18T00:27:29.686Z,26.42
2022-12-18T00:29:56.321Z,35.25
2022-12-18T00:32:22.914Z,37.53
2022-12-18T00:34:49.607Z,25.85
2022-12-18T00:37:20.052Z,32.03
2022-12-18T00:39:47.137Z,37.33
2022-12-18T00:42:32.520Z,32.40
2022-12-18T00:44:59.159Z,39.17
2022-12-18T00:47:25.791Z,35.15
2022-12-18T00:49:52.901Z,25.55
2022-12-18T00:52:19.494Z,28.27
2022-12-18T00:54:46.147Z,28.55
2022-12-18T00:57:12.927Z,34.92
2022-12-18T00:59:39.798Z,28.90
2022-12-18T01:02:06.488Z,24.73
2022-12-18T01:04:33.152Z,33.70
2022-12-18T01:06:59.732Z,28.10
2022-12-18T01:09:26.450Z,21.73
2022-12-18T01:11:53.033Z,23.88
2022-12-18T01:14:19.800Z,43.17
2022-12-18T01:16:47.209Z,41.58
2022-12-18T01:19:13.853Z,40.05
2022-12-18T01:21:40.451Z,27.35
2022-12-18T01:24:07.222Z,33.03
2022-12-18T01:26:33.835Z,30.13
2022-12-18T01:29:00.441Z,48.30
2022-12-18T01:31:27.231Z,26.33
2022-12-18T01:33:53.894Z,34.25
2022-12-18T01:36:20.562Z,37.22
2022-12-18T01:38:47.736Z,34.72
2022-12-18T01:41:14.752Z,29.17
2022-12-18T01:43:41.591Z,33.35
2022-12-18T01:46:08.341Z,21.73
2022-12-18T01:48:34.981Z,31.58
2022-12-18T01:51:01.692Z,38.17
2022-12-18T01:53:28.394Z,26.77
2022-12-18T01:55:55.018Z,27.98
2022-12-18T01:58:21.629Z,34.15
2022-12-18T02:00:48.296Z,37.72
2022-12-18T02:03:15.292Z,29.40
2022-12-18T02:05:42.341Z,32.42
2022-12-18T02:08:08.979Z,39.38
2022-12-18T02:10:35.949Z,42.25
2022-12-18T02:13:02.615Z,32.33
2022-12-18T02:15:29.633Z,34.58
2022-12-18T02:17:56.325Z,28.48
2022-12-18T02:20:23.089Z,26.70
2022-12-18T02:22:49.774Z,25.80
2022-12-18T02:25:16.403Z,28.15
2022-12-18T02:27:43.239Z,27.58
2022-12-18T02:30:09.985Z,31.42
2022-12-18T02:32:36.643Z,27.40
2022-12-18T02:35:03.338Z,29.00
2022-12-18T02:37:29.914Z,23.92
2022-12-18T02:39:56.506Z,29.30
2022-12-18T02:42:23.215Z,24.23
2022-12-18T02:44:50.193Z,24.27
2022-12-18T02:47:16.773Z,30.08
2022-12-18T02:49:43.347Z,23.73
2022-12-18T02:52:09.943Z,24.60
2022-12-18T02:54:36.595Z,21.95
2022-12-18T02:57:03.477Z,29.17
2022-12-18T02:59:30.180Z,39.45
2022-12-18T03:01:56.837Z,22.50
2022-12-18T03:04:23.622Z,27.83
2022-12-18T03:06:50.194Z,31.15
2022-12-18T03:09:16.857Z,30.92
2022-12-18T03:12:02.226Z,26.67
2022-12-18T03:14:29.191Z,28.00
2022-12-18T03:16:57.051Z,18.73
2022-12-18T03:19:23.748Z,29.73
2022-12-18T03:21:50.379Z,26.77
2022-12-18T03:24:16.989Z,28.75
2022-12-18T03:26:43.592Z,18.83
2022-12-18T03:29:10.277Z,21.73
2022-12-18T03:31:36.878Z,24.73
2022-12-18T03:34:03.501Z,22.10
2022-12-18T03:36:33.175Z,19.67
2022-12-18T03:38:59.749Z,16.05
2022-12-18T03:41:26.377Z,18.27
2022-12-18T03:43:53.221Z,18.42
2022-12-18T03:46:20.320Z,22.33
2022-12-18T03:48:47.136Z,30.05
2022-12-18T03:51:13.726Z,22.10
2022-12-18T03:53:40.753Z,20.95
2022-12-18T03:56:07.611Z,20.02
2022-12-18T03:58:34.266Z,20.80
2022-12-18T04:01:01.149Z,21.90
2022-12-18T04:03:28.221Z,20.83
2022-12-18T04:05:54.984Z,35.40
2022-12-18T04:08:21.663Z,14.45
2022-12-18T04:10:48.276Z,22.50
2022-12-18T04:13:15.037Z,27.55
2022-12-18T04:15:42.064Z,21.40
2022-12-18T04:18:08.663Z,15.57
2022-12-18T04:20:35.330Z,21.05
2022-12-18T04:23:02.084Z,19.33
2022-12-18T04:25:28.802Z,17.83
2022-12-18T04:27:55.848Z,27.13
2022-12-18T04:30:22.417Z,23.42
2022-12-18T04:32:52.146Z,21.13
2022-12-18T04:35:19.052Z,24.20
2022-12-18T04:37:45.667Z,40.22
2022-12-18T04:40:12.338Z,26.02
2022-12-18T04:42:38.962Z,23.73
2022-12-18T04:45:05.969Z,24.00
2022-12-18T04:47:33.088Z,40.72
2022-12-18T04:49:59.854Z,22.33
2022-12-18T04:52:26.442Z,26.40
2022-12-18T04:54:53.041Z,24.40
2022-12-18T04:57:19.644Z,22.23
2022-12-18T04:59:46.232Z,23.92
2022-12-18T05:02:12.943Z,21.90
2022-12-18T05:04:39.998Z,33.58
2022-12-18T05:07:06.577Z,32.25
2022-12-18T05:09:33.171Z,27.23
2022-12-18T05:12:00.360Z,26.15
2022-12-18T05:14:28.558Z,21.23
2022-12-18T05:17:00.545Z,38.90
2022-12-18T05:19:27.752Z,25.40
2022-12-18T05:21:54.464Z,31.80
2022-12-18T05:24:21.142Z,28.30
2022-12-18T05:26:48.129Z,28.40
2022-12-18T05:29:14.731Z,29.45
2022-12-18T05:31:41.402Z,39.45
2022-12-18T05:34:09.950Z,28.08
2022-12-18T05:36:38.012Z,28.55
2022-12-18T05:39:04.854Z,52.30
2022-12-18T05:41:32.721Z,27.23
2022-12-18T05:43:59.332Z,27.88
2022-12-18T05:46:25.925Z,27.95
2022-12-18T05:48:52.675Z,23.63
2022-12-18T05:51:19.495Z,34.67
2022-12-18T05:53:46.056Z,27.90
2022-12-18T05:56:12.689Z,21.25
2022-12-18T05:58:39.673Z,29.52
2022-12-18T06:01:06.518Z,25.75
2022-12-18T06:03:34.009Z,35.47
2022-12-18T06:06:00.776Z,20.23
2022-12-18T06:08:27.391Z,30.73
2022-12-18T06:10:54.050Z,21.02
2022-12-18T06:13:20.690Z,30.63
2022-12-18T06:15:49.848Z,26.35
2022-12-18T06:18:16.702Z,31.17
2022-12-18T06:20:43.925Z,22.98
2022-12-18T06:23:10.643Z,31.90
2022-12-18T06:25:37.225Z,24.58
2022-12-18T06:28:03.804Z,27.05
2022-12-18T06:30:32.013Z,29.50
2022-12-18T06:32:58.732Z,24.52
2022-12-18T06:35:25.316Z,18.00
2022-12-18T06:37:51.959Z,25.30
2022-12-18T06:40:19.023Z,19.63
2022-12-18T06:42:45.676Z,22.73
2022-12-18T06:45:12.687Z,28.80
2022-12-18T06:47:39.328Z,24.13
2022-12-18T06:50:06.758Z,21.73
2022-12-18T06:52:33.398Z,25.52
2022-12-18T06:55:00.226Z,27.70
2022-12-18T06:57:26.950Z,30.63
2022-12-18T06:59:53.865Z,27.90
2022-12-18T07:02:20.637Z,19.20
2022-12-18T07:04:47.367Z,24.50
2022-12-18T07:07:14.015Z,31.10
2022-12-18T07:09:40.635Z,28.25
2022-12-18T07:12:08.856Z,27.75
2022-12-18T07:14:35.438Z,35.72
2022-12-18T07:17:02.129Z,28.60
2022-12-18T07:19:28.972Z,23.83
2022-12-18T07:21:56.620Z,19.92
2022-12-18T07:24:23.315Z,27.65
2022-12-18T07:26:49.981Z,30.27
2022-12-18T07:29:16.563Z,24.15
2022-12-18T07:31:43.544Z,28.38
2022-12-18T07:34:10.519Z,27.02
2022-12-18T07:36:37.163Z,25.88
2022-12-18T07:39:03.776Z,25.23
2022-12-18T07:41:30.618Z,25.13
2022-12-18T07:43:57.333Z,19.23
2022-12-18T07:46:24.016Z,18.92
2022-12-18T07:48:50.683Z,18.20
2022-12-18T07:51:17.353Z,21.83
2022-12-18T07:53:45.413Z,22.55
2022-12-18T07:56:27.024Z,30.42
2022-12-18T07:58:54.805Z,29.33
2022-12-18T08:01:21.689Z,22.88
2022-12-18T08:03:48.758Z,26.40
2022-12-18T08:06:17.659Z,21.27
2022-12-18T08:08:44.285Z,19.88
2022-12-18T08:11:10.914Z,33.45
2022-12-18T08:13:38.040Z,24.75
2022-12-18T08:16:05.051Z,23.60
2022-12-18T08:18:34.657Z,25.05
2022-12-18T08:21:01.520Z,19.85
2022-12-18T08:23:28.900Z,19.65
2022-12-18T08:25:55.591Z,25.55
2022-12-18T08:28:22.780Z,31.55
2022-12-18T08:30:49.408Z,29.42
2022-12-18T08:33:16.570Z,21.83
2022-12-18T08:35:46.051Z,31.55
2022-12-18T08:38:12.873Z,27.52
2022-12-18T08:40:39.513Z,22.98
2022-12-18T08:43:24.911Z,25.58
2022-12-18T08:45:51.726Z,33.47
2022-12-18T08:48:22.157Z,28.75
2022-12-18T08:50:49.341Z,25.77
2022-12-18T08:53:16.597Z,21.42
2022-12-18T08:55:47.177Z,28.95
2022-12-18T08:58:16.839Z,26.38
2022-12-18T09:00:43.787Z,31.05
2022-12-18T09:03:10.398Z,22.67
2022-12-18T09:05:37.173Z,25.13
2022-12-18T09:08:03.981Z,23.50
2022-12-18T09:10:31.027Z,26.02
2022-12-18T09:12:57.641Z,27.48
2022-12-18T09:15:24.421Z,24.27
2022-12-18T09:17:51.684Z,31.20
2022-12-18T09:20:18.291Z,26.90
2022-12-18T09:22:45.356Z,32.35
2022-12-18T09:25:12.157Z,30.40
2022-12-18T09:27:39.434Z,24.02
2022-12-18T09:30:06.376Z,21.15
2022-12-18T09:32:32.989Z,24.63
2022-12-18T09:35:00.208Z,20.08
2022-12-18T09:37:27.028Z,20.58
2022-12-18T09:39:53.650Z,27.67
2022-12-18T09:42:20.257Z,27.15
2022-12-18T09:44:48.289Z,18.77
2022-12-18T09:47:15.604Z,27.67
2022-12-18T09:49:42.403Z,23.80
2022-12-18T09:52:09.172Z,24.20
2022-12-18T09:54:39.538Z,21.95
2022-12-18T09:57:06.586Z,23.65
2022-12-18T09:59:33.871Z,26.20
2022-12-18T10:02:01.191Z,21.63
2022-12-18T10:04:28.580Z,24.83
2022-12-18T10:06:55.634Z,27.13
2022-12-18T10:09:22.815Z,20.02
2022-12-18T10:11:49.896Z,17.73
2022-12-18T10:14:16.720Z,31.25
2022-12-18T10:16:43.805Z,22.50
2022-12-18T10:19:10.934Z,24.45
2022-12-18T10:21:37.938Z,21.90
2022-12-18T10:24:05.112Z,19.55
2022-12-18T10:26:32.281Z,22.40
2022-12-18T10:29:03.795Z,23.25
2022-12-18T10:31:32.357Z,25.00
2022-12-18T10:33:59.118Z,19.98
2022-12-18T10:36:25.782Z,13.85
2022-12-18T10:38:52.471Z,24.58
2022-12-18T10:41:19.642Z,24.23
2022-12-18T10:43:48.406Z,25.85
2022-12-18T10:46:15.862Z,19.10
2022-12-18T10:48:43.028Z,16.38
2022-12-18T10:51:12.875Z,21.67
2022-12-18T10:53:40.099Z,18.65
2022-12-18T10:56:06.852Z,26.42
2022-12-18T10:58:33.596Z,29.02
2022-12-18T11:01:00.222Z,29.40
2022-12-18T11:03:26.845Z,30.77
2022-12-18T11:05:53.472Z,21.33
2022-12-18T11:08:20.086Z,17.35
2022-12-18T11:10:46.678Z,22.75
2022-12-18T11:13:13.367Z,23.20
2022-12-18T11:15:40.177Z,22.00
2022-12-18T11:18:06.839Z,17.35
2022-12-18T11:20:33.408Z,22.13
2022-12-18T11:23:00.078Z,25.05
2022-12-18T11:25:32.436Z,27.27
2022-12-18T11:28:00.245Z,26.65
2022-12-18T11:30:27.012Z,20.95
2022-12-18T11:32:53.766Z,21.15
2022-12-18T11:35:20.365Z,21.48
2022-12-18T11:37:47.062Z,23.33
2022-12-18T11:40:13.715Z,22.20
2022-12-18T11:42:40.308Z,21.20
2022-12-18T11:45:07.639Z,31.42
2022-12-18T11:47:34.291Z,20.45
2022-12-18T11:50:00.888Z,25.27
2022-12-18T11:52:27.987Z,21.60
2022-12-18T11:54:54.649Z,27.50
2022-12-18T11:57:21.343Z,25.35
2022-12-18T11:59:47.981Z,22.15
2022-12-18T12:02:14.795Z,36.92
2022-12-18T12:04:41.631Z,26.98
2022-12-18T12:07:08.267Z,21.75
2022-12-18T12:09:34.886Z,24.73
2022-12-18T12:12:01.503Z,28.13
2022-12-18T12:14:28.111Z,24.55
2022-12-18T12:16:54.849Z,30.17
2022-12-18T12:19:21.514Z,25.60
2022-12-18T12:21:48.162Z,21.00
2022-12-18T12:24:14.821Z,20.67
2022-12-18T12:26:41.480Z,23.88
2022-12-18T12:29:10.648Z,29.85
2022-12-18T12:31:37.769Z,20.20
2022-12-18T12:34:05.070Z,25.70
2022-12-18T12:36:33.576Z,25.40
2022-12-18T12:39:01.246Z,35.55
2022-12-18T12:41:47.147Z,29.60
2022-12-18T12:44:14.550Z,23.33
2022-12-18T12:46:41.785Z,22.85
2022-12-18T12:49:10.761Z,24.15
2022-12-18T12:51:38.036Z,20.88
2022-12-18T12:54:05.674Z,21.33
2022-12-18T12:56:33.795Z,29.73
2022-12-18T12:59:00.687Z,24.02
2022-12-18T13:01:28.163Z,44.22
2022-12-18T13:03:56.080Z,28.38
2022-12-18T13:06:23.495Z,24.30
2022-12-18T13:08:50.990Z,27.00
2022-12-18T13:11:39.930Z,23.05
2022-12-18T13:14:07.362Z,26.65
2022-12-18T13:16:34.599Z,41.92
2022-12-18T13:19:02.069Z,46.22
2022-12-18T13:21:29.416Z,20.98
2022-12-18T13:24:00.075Z,16.50
2022-12-18T13:26:29.017Z,20.58
2022-12-18T13:28:56.664Z,25.67
2022-12-18T13:31:24.389Z,22.95
2022-12-18T13:34:24.613Z,18.70
2022-12-18T13:36:39.167Z,15.88
2022-12-18T13:39:06.322Z,20.08
2022-12-18T13:41:33.985Z,19.02
2022-12-18T13:44:01.956Z,25.02
2022-12-18T13:46:29.150Z,32.60
2022-12-18T13:48:56.353Z,20.15
2022-12-18T13:51:23.682Z,20.13
2022-12-18T13:53:51.101Z,27.92
2022-12-18T13:56:21.605Z,14.98
2022-12-18T13:58:50.106Z,17.65
2022-12-18T14:01:17.319Z,15.88
2022-12-18T14:03:44.932Z,16.90
2022-12-18T14:06:13.980Z,21.02
2022-12-18T14:08:42.624Z,17.30
2022-12-18T14:11:10.869Z,18.08
2022-12-18T14:13:41.486Z,14.68
2022-12-18T14:16:10.069Z,20.63
2022-12-18T14:18:38.414Z,13.45
2022-12-18T14:21:06.092Z,12.00
2022-12-18T14:23:33.460Z,16.27
2022-12-18T14:26:05.500Z,15.95
2022-12-18T14:28:36.341Z,12.45
2022-12-18T14:31:03.696Z,15.57
2022-12-18T14:33:31.177Z,16.42
2022-12-18T14:36:01.888Z,14.18
2022-12-18T14:38:31.598Z,14.90
2022-12-18T14:41:06.025Z,15.02
2022-12-18T14:43:33.301Z,14.77
2022-12-18T14:46:00.371Z,12.25
2022-12-18T14:48:27.894Z,11.77
2022-12-18T14:50:55.292Z,22.48
2022-12-18T14:53:22.660Z,38.63
2022-12-18T14:55:49.811Z,25.92
2022-12-18T14:58:16.929Z,17.30
2022-12-18T15:00:44.269Z,15.00
2022-12-18T15:03:11.899Z,14.20
2022-12-18T15:05:39.097Z,28.25
2022-12-18T15:08:06.339Z,11.10
2022-12-18T15:10:33.566Z,19.08
2022-12-18T15:13:01.888Z,12.82
2022-12-18T15:15:29.023Z,14.98
2022-12-18T15:17:56.253Z,12.65
2022-12-18T15:20:23.186Z,14.25
2022-12-18T15:22:50.261Z,10.20
2022-12-18T15:25:17.317Z,14.18
2022-12-18T15:27:44.380Z,12.55
2022-12-18T15:30:11.855Z,12.18
2022-12-18T15:32:38.817Z,13.60
2022-12-18T15:35:05.986Z,12.18
2022-12-18T15:37:33.297Z,10.65
2022-12-18T15:40:00.256Z,16.42
2022-12-18T15:42:45.775Z,10.10
2022-12-18T15:45:12.734Z,11.13
2022-12-18T15:47:40.028Z,9.98
2022-12-18T15:50:07.372Z,9.93
2022-12-18T15:52:34.719Z,9.48
2022-12-18T15:55:20.480Z,9.57
2022-12-18T15:57:47.757Z,20.73
2022-12-18T16:00:15.017Z,7.13
2022-12-18T16:02:42.429Z,13.48
2022-12-18T16:05:10.179Z,12.00
2022-12-18T16:07:37.326Z,13.65
2022-12-18T16:10:04.467Z,11.27
2022-12-18T16:12:34.913Z,9.98
2022-12-18T16:15:03.262Z,9.10
2022-12-18T16:17:30.247Z,11.38
2022-12-18T16:19:57.513Z,37.00
2022-12-18T16:22:24.712Z,7.70
2022-12-18T16:24:51.809Z,16.08
2022-12-18T16:27:19.035Z,9.02
2022-12-18T16:29:46.184Z,7.32
2022-12-18T16:32:13.200Z,5.28
2022-12-18T16:34:40.303Z,7.80
2022-12-18T16:37:07.169Z,6.05
2022-12-18T16:39:35.564Z,6.50
2022-12-18T16:42:05.302Z,4.07
2022-12-18T16:44:32.867Z,4.07
2022-12-18T16:47:03.407Z,8.15
2022-12-18T16:49:30.601Z,5.30
2022-12-18T16:51:57.891Z,4.88
2022-12-18T16:54:25.364Z,4.25
2022-12-18T16:56:52.576Z,4.65
2022-12-18T16:59:19.912Z,8.63
2022-12-18T17:01:47.403Z,3.95
2022-12-18T17:04:14.917Z,12.45
2022-12-18T17:06:42.121Z,4.68
2022-12-18T17:09:09.701Z,7.85
2022-12-18T17:11:36.355Z,6.82
2022-12-18T17:14:03.535Z,4.72
2022-12-18T17:16:30.357Z,6.82
2022-12-18T17:18:58.723Z,5.85
2022-12-18T17:21:25.293Z,5.65
2022-12-18T17:23:55.080Z,6.18
2022-12-18T17:26:21.954Z,5.50
2022-12-18T17:28:48.747Z,6.50
2022-12-18T17:31:15.688Z,4.22
2022-12-18T17:33:43.198Z,7.05
2022-12-18T17:36:10.687Z,6.15
2022-12-18T17:38:37.309Z,5.45
2022-12-18T17:41:04.008Z,4.75
2022-12-18T17:43:30.708Z,5.43
2022-12-18T17:45:57.445Z,4.90
2022-12-18T17:48:24.800Z,4.47
2022-12-18T17:50:51.647Z,7.57
2022-12-18T17:53:18.412Z,7.32
2022-12-18T17:55:45.003Z,5.00
2022-12-18T17:58:11.925Z,5.05
2022-12-18T18:00:38.889Z,4.40
2022-12-18T18:03:05.623Z,7.60
2022-12-18T18:05:32.337Z,5.78
2022-12-18T18:08:02.265Z,4.55
2022-12-18T18:10:28.968Z,5.00
2022-12-18T18:13:16.554Z,5.53
2022-12-18T18:15:43.228Z,7.82
2022-12-18T18:18:09.867Z,5.13
2022-12-18T18:20:37.958Z,5.20
2022-12-18T18:23:04.624Z,5.57
2022-12-18T18:25:31.220Z,6.35
2022-12-18T18:27:58.207Z,5.43
2022-12-18T18:30:24.885Z,5.93
2022-12-18T18:32:51.509Z,5.13
2022-12-18T18:35:52.236Z,4.50
2022-12-18T18:38:06.327Z,4.47
2022-12-18T18:40:33.023Z,5.03
2022-12-18T18:42:59.650Z,5.22
2022-12-18T18:45:26.320Z,18.88
2022-12-18T18:47:53.016Z,5.70
2022-12-18T18:50:19.614Z,5.25
2022-12-18T18:52:46.301Z,6.45
2022-12-18T18:55:22.315Z,7.20
2022-12-18T18:57:52.390Z,6.20
2022-12-18T19:00:22.404Z,5.55
2022-12-18T19:02:49.358Z,9.65
2022-12-18T19:05:16.211Z,5.32
2022-12-18T19:07:43.100Z,5.22
2022-12-18T19:10:09.967Z,4.65
2022-12-18T19:12:55.598Z,7.60
2022-12-18T19:15:22.376Z,5.38
2022-12-18T19:17:49.376Z,4.32
2022-12-18T19:20:16.064Z,6.25
2022-12-18T19:22:42.798Z,5.22
2022-12-18T19:25:10.028Z,8.10
2022-12-18T19:27:38.982Z,6.43
2022-12-18T19:30:05.710Z,7.80
2022-12-18T19:32:32.642Z,7.28
2022-12-18T19:34:59.477Z,4.95
2022-12-18T19:37:26.172Z,5.95
2022-12-18T19:39:53.007Z,5.97
2022-12-18T19:42:25.480Z,6.55
2022-12-18T19:44:54.823Z,5.65
2022-12-18T19:47:21.400Z,10.10
2022-12-18T19:49:48.090Z,6.57
2022-12-18T19:52:17.814Z,7.18
2022-12-18T19:54:44.492Z,16.48
2022-12-18T19:57:12.520Z,5.82
2022-12-18T19:59:39.180Z,13.15
2022-12-18T20:02:07.173Z,6.13
2022-12-18T20:04:34.163Z,6.38
2022-12-18T20:07:00.825Z,5.45
2022-12-18T20:09:27.611Z,6.47
2022-12-18T20:11:55.411Z,5.45
2022-12-18T20:14:22.640Z,4.88
2022-12-18T20:16:50.082Z,5.65
2022-12-18T20:19:16.980Z,5.60
2022-12-18T20:21:44.086Z,5.07
2022-12-18T20:24:10.788Z,5.97
2022-12-18T20:26:37.479Z,6.03
2022-12-18T20:29:04.256Z,7.07
2022-12-18T20:31:31.016Z,5.05
2022-12-18T20:33:59.921Z,6.85
2022-12-18T20:36:28.420Z,6.60
2022-12-18T20:38:58.081Z,6.97
2022-12-18T20:41:26.242Z,6.13
2022-12-18T20:43:57.807Z,10.35
2022-12-18T20:46:24.821Z,4.88
2022-12-18T20:48:51.551Z,4.82
2022-12-18T20:51:18.260Z,5.38
2022-12-18T20:53:45.468Z,6.07
2022-12-18T20:56:12.386Z,8.20
2022-12-18T20:58:39.040Z,4.88
2022-12-18T21:01:06.386Z,4.70
2022-12-18T21:03:33.153Z,4.88
2022-12-18T21:06:00.034Z,5.55
2022-12-18T21:08:26.617Z,5.25
2022-12-18T21:10:53.413Z,4.40
2022-12-18T21:13:22.763Z,5.60
2022-12-18T21:15:49.461Z,3.53
2022-12-18T21:18:16.176Z,3.25
2022-12-18T21:20:42.835Z,2.97
2022-12-18T21:23:16.200Z,8.05
2022-12-18T21:25:43.335Z,4.88
2022-12-18T21:28:09.990Z,3.95
2022-12-18T21:30:36.674Z,3.75
2022-12-18T21:33:03.408Z,3.25
2022-12-18T21:35:32.069Z,3.85
2022-12-18T21:37:58.886Z,4.45
2022-12-18T21:40:25.628Z,14.15
2022-12-18T21:43:14.933Z,7.93
2022-12-18T21:45:44.590Z,10.05
2022-12-18T21:48:12.264Z,6.53
2022-12-18T21:50:38.904Z,5.93
2022-12-18T21:53:05.579Z,9.40
2022-12-18T21:55:32.258Z,3.75
2022-12-18T21:57:58.926Z,5.68
2022-12-18T22:00:25.525Z,5.60
2022-12-18T22:03:15.445Z,5.25
2022-12-18T22:05:38.795Z,8.75
2022-12-18T22:08:06.835Z,3.53
2022-12-18T22:10:34.155Z,3.38
2022-12-18T22:13:00.849Z,2.55
2022-12-18T22:15:27.559Z,2.35
2022-12-18T22:17:59.522Z,4.18
2022-12-18T22:20:26.751Z,3.03
2022-12-18T22:22:53.617Z,7.75
2022-12-18T22:25:20.212Z,3.72
2022-12-18T22:28:06.768Z,3.65
2022-12-18T22:30:33.402Z,4.38
2022-12-18T22:33:00.310Z,9.23
2022-12-18T22:35:26.921Z,7.10
2022-12-18T22:37:53.504Z,2.30
2022-12-18T22:40:24.670Z,2.42
2022-12-18T22:42:52.660Z,2.88
2022-12-18T22:45:19.364Z,2.67
2022-12-18T22:47:45.956Z,2.05
2022-12-18T22:50:12.566Z,2.67
2022-12-18T22:52:39.238Z,3.55
2022-12-18T22:55:06.215Z,5.65
2022-12-18T22:57:33.720Z,4.10
2022-12-18T23:00:01.361Z,3.17
2022-12-18T23:02:28.089Z,3.92
2022-12-18T23:04:54.868Z,5.70
2022-12-18T23:07:21.444Z,4.82
2022-12-18T23:09:49.388Z,3.70
2022-12-18T23:12:20.519Z,3.78
2022-12-18T23:14:47.398Z,3.65
2022-12-18T23:17:14.072Z,5.13
2022-12-18T23:19:45.488Z,6.38
2022-12-18T23:22:15.435Z,4.95
2022-12-18T23:24:42.141Z,4.43
2022-12-18T23:27:11.362Z,2.53
2022-12-18T23:29:38.217Z,2.17
2022-12-18T23:32:04.811Z,9.70
2022-12-18T23:34:31.472Z,4.35
2022-12-18T23:36:58.149Z,7.78
2022-12-18T23:39:29.705Z,19.73
2022-12-18T23:41:56.849Z,2.28
2022-12-18T23:44:23.481Z,2.53
2022-12-18T23:46:50.224Z,3.20
2022-12-18T23:49:16.923Z,4.90
2022-12-18T23:51:43.713Z,9.60
2022-12-18T23:54:10.301Z,3.42
2022-12-18T23:56:37.025Z,2.15
2022-12-18T23:59:03.628Z,2.20
